createdAt,value
2018-10-05T00:02:22.834Z,9.87
2018-10-05T00:04:50.614Z,10.33
2018-10-05T00:07:18.443Z,9.73
2018-10-05T00:09:46.234Z,8.67
2018-10-05T00:12:13.998Z,8.27
2018-10-05T00:14:41.786Z,7.90
2018-10-05T00:17:09.563Z,7.23
2018-10-05T00:19:37.355Z,7.77
2018-10-05T00:22:05.145Z,7.00
2018-10-05T00:24:33.020Z,7.20
2018-10-05T00:27:00.790Z,7.07
2018-10-05T00:29:28.588Z,7.90
2018-10-05T00:31:56.374Z,7.30
2018-10-05T00:34:24.142Z,7.43
2018-10-05T00:36:51.978Z,7.23
2018-10-05T00:39:19.754Z,6.27
2018-10-05T00:41:47.646Z,7.17
2018-10-05T00:44:15.441Z,6.93
2018-10-05T00:46:43.206Z,7.07
2018-10-05T00:49:10.985Z,7.77
2018-10-05T00:51:38.764Z,7.23
2018-10-05T00:54:06.662Z,6.97
2018-10-05T00:56:34.431Z,6.97
2018-10-05T00:59:02.223Z,7.50
2018-10-05T01:01:30.017Z,6.97
2018-10-05T01:03:57.847Z,6.13
2018-10-05T01:06:25.725Z,8.10
2018-10-05T01:08:53.495Z,6.70
2018-10-05T01:11:21.338Z,7.03
2018-10-05T01:13:49.098Z,7.20
2018-10-05T01:16:16.974Z,7.00
2018-10-05T01:18:44.822Z,7.07
2018-10-05T01:21:12.627Z,7.07
2018-10-05T01:23:40.381Z,7.23
2018-10-05T01:26:08.230Z,7.00
2018-10-05T01:28:36.036Z,7.60
2018-10-05T01:31:03.818Z,6.17
2018-10-05T01:33:31.629Z,7.43
2018-10-05T01:35:59.490Z,7.30
2018-10-05T01:38:27.308Z,6.93
2018-10-05T01:40:55.113Z,7.40
2018-10-05T01:43:22.918Z,7.50
2018-10-05T01:45:50.681Z,6.43
2018-10-05T01:48:18.542Z,7.50
2018-10-05T01:50:46.312Z,6.70
2018-10-05T01:53:14.071Z,7.53
2018-10-05T01:55:41.841Z,6.67
2018-10-05T01:58:09.645Z,6.40
2018-10-05T02:00:37.476Z,7.07
2018-10-05T02:03:05.296Z,6.20
2018-10-05T02:05:33.175Z,6.67
2018-10-05T02:08:00.956Z,6.80
2018-10-05T02:10:28.752Z,6.80
2018-10-05T02:12:56.522Z,7.00
2018-10-05T02:15:24.285Z,6.80
2018-10-05T02:17:52.108Z,6.80
2018-10-05T02:20:19.931Z,6.80
2018-10-05T02:22:47.766Z,5.83
2018-10-05T02:25:15.568Z,5.47
2018-10-05T02:27:43.371Z,6.50
2018-10-05T02:30:11.258Z,5.77
2018-10-05T02:32:39.063Z,5.83
2018-10-05T02:35:06.875Z,6.37
2018-10-05T02:37:34.659Z,6.47
2018-10-05T02:40:02.481Z,5.67
2018-10-05T02:42:30.317Z,6.17
2018-10-05T02:44:58.166Z,6.93
2018-10-05T02:47:25.940Z,6.90
2018-10-05T02:49:53.733Z,6.00
2018-10-05T02:52:21.518Z,6.73
2018-10-05T02:54:49.298Z,6.33
2018-10-05T02:57:17.167Z,6.40
2018-10-05T02:59:44.939Z,6.73
2018-10-05T03:02:18.740Z,6.57
2018-10-05T03:04:46.489Z,6.43
2018-10-05T03:07:14.311Z,6.90
2018-10-05T03:09:42.270Z,6.03
2018-10-05T03:12:10.197Z,6.90
2018-10-05T03:14:38.165Z,6.70
2018-10-05T03:17:06.171Z,6.97
2018-10-05T03:19:34.104Z,6.87
2018-10-05T03:22:01.906Z,6.57
2018-10-05T03:24:29.726Z,6.63
2018-10-05T03:26:57.567Z,5.93
2018-10-05T03:29:25.382Z,7.03
2018-10-05T03:31:53.218Z,6.80
2018-10-05T03:34:21.109Z,6.90
2018-10-05T03:36:49.009Z,6.40
2018-10-05T03:39:16.839Z,7.33
2018-10-05T03:41:44.599Z,6.87
2018-10-05T03:44:12.422Z,6.03
2018-10-05T03:46:40.194Z,6.83
2018-10-05T03:49:07.973Z,6.40
2018-10-05T03:51:35.733Z,6.83
2018-10-05T03:54:03.558Z,6.57
2018-10-05T03:56:31.366Z,6.37
2018-10-05T03:58:59.158Z,6.93
2018-10-05T04:01:26.930Z,7.07
2018-10-05T04:03:54.730Z,6.50
2018-10-05T04:06:22.545Z,6.67
2018-10-05T04:08:50.357Z,6.13
2018-10-05T04:11:18.298Z,6.50
2018-10-05T04:13:46.106Z,7.17
2018-10-05T04:16:13.927Z,6.17
2018-10-05T04:18:41.702Z,6.67
2018-10-05T04:21:09.519Z,8.13
2018-10-05T04:23:37.309Z,7.17
2018-10-05T04:26:05.082Z,8.17
2018-10-05T04:28:32.904Z,7.80
2018-10-05T04:31:00.694Z,8.03
2018-10-05T04:33:28.461Z,8.67
2018-10-05T04:35:56.251Z,8.20
2018-10-05T04:38:24.030Z,11.03
2018-10-05T04:40:51.807Z,10.13
2018-10-05T04:43:19.615Z,8.97
2018-10-05T04:45:47.449Z,8.20
2018-10-05T04:48:15.259Z,6.97
2018-10-05T04:50:43.028Z,7.53
2018-10-05T04:53:10.802Z,7.10
2018-10-05T04:55:38.598Z,7.50
2018-10-05T04:58:06.397Z,7.67
2018-10-05T05:00:34.279Z,6.97
2018-10-05T05:03:02.138Z,6.53
2018-10-05T05:05:30.813Z,6.43
2018-10-05T05:07:58.641Z,7.93
2018-10-05T05:10:26.653Z,7.40
2018-10-05T05:12:54.456Z,7.37
2018-10-05T05:15:22.315Z,7.27
2018-10-05T05:17:50.077Z,7.23
2018-10-05T05:20:17.910Z,7.50
2018-10-05T05:22:45.731Z,7.33
2018-10-05T05:25:13.546Z,7.47
2018-10-05T05:27:41.492Z,6.17
2018-10-05T05:30:09.419Z,6.60
2018-10-05T05:32:37.339Z,7.10
2018-10-05T05:35:05.223Z,9.93
2018-10-05T05:37:33.047Z,7.17
2018-10-05T05:40:00.797Z,6.43
2018-10-05T05:42:28.569Z,6.57
2018-10-05T05:44:56.351Z,7.10
2018-10-05T05:47:24.150Z,5.83
2018-10-05T05:49:51.956Z,6.53
2018-10-05T05:52:19.713Z,5.23
2018-10-05T05:54:47.533Z,5.33
2018-10-05T05:57:15.305Z,5.57
2018-10-05T05:59:43.102Z,5.50
2018-10-05T06:02:10.882Z,4.63
2018-10-05T06:04:38.665Z,4.17
2018-10-05T06:07:06.576Z,4.67
2018-10-05T06:09:34.374Z,4.90
2018-10-05T06:12:02.162Z,6.20
2018-10-05T06:14:29.958Z,5.70
2018-10-05T06:16:57.859Z,6.00
2018-10-05T06:19:25.673Z,4.60
2018-10-05T06:21:53.599Z,5.27
2018-10-05T06:24:21.338Z,5.30
2018-10-05T06:26:49.123Z,5.60
2018-10-05T06:29:16.930Z,7.77
2018-10-05T06:31:44.786Z,5.87
2018-10-05T06:34:12.541Z,5.73
2018-10-05T06:36:40.374Z,5.53
2018-10-05T06:39:08.850Z,6.03
2018-10-05T06:41:36.790Z,5.53
2018-10-05T06:44:04.546Z,5.20
2018-10-05T06:46:32.302Z,6.20
2018-10-05T06:49:00.135Z,5.43
2018-10-05T06:51:27.937Z,8.00
2018-10-05T06:53:55.725Z,6.10
2018-10-05T06:56:23.545Z,6.50
2018-10-05T06:58:51.441Z,7.37
2018-10-05T07:01:19.285Z,6.47
2018-10-05T07:03:47.085Z,8.20
2018-10-05T07:06:14.857Z,6.37
2018-10-05T07:08:42.653Z,5.87
2018-10-05T07:11:10.585Z,6.30
2018-10-05T07:13:38.365Z,5.93
2018-10-05T07:16:06.250Z,6.70
2018-10-05T07:18:34.127Z,6.47
2018-10-05T07:21:01.943Z,7.07
2018-10-05T07:23:29.761Z,6.80
2018-10-05T07:25:57.623Z,7.10
2018-10-05T07:28:25.506Z,7.03
2018-10-05T07:30:53.334Z,7.60
2018-10-05T07:33:21.174Z,7.47
2018-10-05T07:35:49.055Z,6.50
2018-10-05T07:38:16.856Z,6.50
2018-10-05T07:40:44.721Z,6.87
2018-10-05T07:43:12.496Z,6.83
2018-10-05T07:45:40.374Z,7.40
2018-10-05T07:48:08.275Z,7.03
2018-10-05T07:50:36.261Z,6.10
2018-10-05T07:53:04.167Z,6.33
2018-10-05T07:55:31.955Z,7.20
2018-10-05T07:57:59.754Z,7.27
2018-10-05T08:00:27.537Z,6.43
2018-10-05T08:02:55.360Z,6.30
2018-10-05T08:05:23.201Z,6.37
2018-10-05T08:07:51.069Z,5.87
2018-10-05T08:10:18.937Z,5.33
2018-10-05T08:12:46.698Z,5.80
2018-10-05T08:15:14.645Z,5.20
2018-10-05T08:17:42.570Z,6.67
2018-10-05T08:20:10.382Z,5.20
2018-10-05T08:22:38.215Z,5.20
2018-10-05T08:25:06.078Z,7.03
2018-10-05T08:27:33.870Z,5.37
2018-10-05T08:30:01.655Z,4.70
2018-10-05T08:32:30.384Z,5.50
2018-10-05T08:34:58.145Z,4.93
2018-10-05T08:37:25.966Z,5.00
2018-10-05T08:39:53.847Z,5.37
2018-10-05T08:42:21.834Z,5.43
2018-10-05T08:44:49.585Z,5.70
2018-10-05T08:47:17.381Z,5.43
2018-10-05T08:49:45.198Z,5.00
2018-10-05T08:52:13.008Z,5.20
2018-10-05T08:54:40.770Z,5.50
2018-10-05T08:57:08.725Z,5.57
2018-10-05T08:59:36.666Z,5.67
2018-10-05T09:02:04.799Z,5.40
2018-10-05T09:04:32.583Z,7.50
2018-10-05T09:07:00.361Z,5.93
2018-10-05T09:09:28.118Z,6.13
2018-10-05T09:11:55.934Z,5.00
2018-10-05T09:14:23.686Z,4.80
2018-10-05T09:16:51.521Z,6.13
2018-10-05T09:19:19.336Z,5.00
2018-10-05T09:21:47.133Z,5.10
2018-10-05T09:24:14.943Z,5.57
2018-10-05T09:26:42.777Z,4.40
2018-10-05T09:29:10.633Z,4.83
2018-10-05T09:31:38.422Z,4.60
2018-10-05T09:34:06.174Z,4.87
2018-10-05T09:36:33.956Z,4.30
2018-10-05T09:39:01.789Z,4.30
2018-10-05T09:41:29.667Z,5.23
2018-10-05T09:43:57.417Z,4.63
2018-10-05T09:46:25.244Z,4.47
2018-10-05T09:48:53.009Z,4.57
2018-10-05T09:51:20.762Z,6.33
2018-10-05T09:53:48.698Z,4.33
2018-10-05T09:56:16.537Z,5.10
2018-10-05T09:58:44.445Z,4.30
2018-10-05T10:01:17.341Z,4.47
2018-10-05T10:03:45.306Z,4.33
2018-10-05T10:06:13.094Z,4.83
2018-10-05T10:08:40.878Z,4.67
2018-10-05T10:11:08.655Z,3.97
2018-10-05T10:13:36.458Z,3.57
2018-10-05T10:16:04.269Z,3.90
2018-10-05T10:18:32.085Z,4.37
2018-10-05T10:21:00.075Z,4.73
2018-10-05T10:23:27.891Z,4.57
2018-10-05T10:25:55.691Z,4.23
2018-10-05T10:28:23.576Z,4.97
2018-10-05T10:30:51.334Z,3.97
2018-10-05T10:33:19.190Z,3.60
2018-10-05T10:35:47.014Z,4.37
2018-10-05T10:38:14.830Z,4.00
2018-10-05T10:40:42.613Z,4.10
2018-10-05T10:43:10.389Z,4.30
2018-10-05T10:45:38.254Z,3.93
2018-10-05T10:48:06.268Z,3.90
2018-10-05T10:50:34.011Z,3.93
2018-10-05T10:53:01.954Z,4.07
2018-10-05T10:55:29.727Z,4.10
2018-10-05T10:57:57.516Z,3.90
2018-10-05T11:00:25.287Z,4.20
2018-10-05T11:02:53.189Z,3.53
2018-10-05T11:05:20.968Z,4.13
2018-10-05T11:07:48.769Z,3.53
2018-10-05T11:10:16.583Z,3.30
2018-10-05T11:12:44.403Z,3.47
2018-10-05T11:15:12.173Z,3.10
2018-10-05T11:17:39.999Z,3.67
2018-10-05T11:20:07.931Z,3.60
2018-10-05T11:22:35.705Z,3.83
2018-10-05T11:25:03.620Z,3.60
2018-10-05T11:27:31.459Z,3.53
2018-10-05T11:29:59.234Z,3.30
2018-10-05T11:32:27.067Z,3.73
2018-10-05T11:34:54.863Z,3.83
2018-10-05T11:37:22.754Z,3.20
2018-10-05T11:39:50.522Z,3.60
2018-10-05T11:42:18.310Z,3.50
2018-10-05T11:44:46.157Z,3.73
2018-10-05T11:47:14.090Z,3.33
2018-10-05T11:49:41.881Z,3.10
2018-10-05T11:52:09.646Z,3.30
2018-10-05T11:54:37.499Z,3.50
2018-10-05T11:57:05.265Z,3.40
2018-10-05T11:59:33.077Z,3.63
2018-10-05T12:02:00.882Z,3.30
2018-10-05T12:04:28.683Z,3.57
2018-10-05T12:06:56.484Z,3.87
2018-10-05T12:09:24.249Z,3.20
2018-10-05T12:11:52.128Z,3.17
2018-10-05T12:14:19.885Z,3.10
2018-10-05T12:16:47.689Z,3.73
2018-10-05T12:19:15.554Z,3.10
2018-10-05T12:21:43.346Z,2.97
2018-10-05T12:24:11.150Z,3.53
2018-10-05T12:26:38.999Z,2.90
2018-10-05T12:29:06.869Z,3.30
2018-10-05T12:31:34.629Z,3.30
2018-10-05T12:34:02.406Z,3.20
2018-10-05T12:36:30.182Z,3.20
2018-10-05T12:38:58.250Z,2.90
2018-10-05T12:41:26.077Z,3.47
2018-10-05T12:43:53.865Z,3.23
2018-10-05T12:46:21.695Z,3.53
2018-10-05T12:48:49.455Z,3.40
2018-10-05T12:51:17.230Z,3.20
2018-10-05T12:53:45.007Z,2.97
2018-10-05T12:56:12.773Z,3.33
2018-10-05T12:58:40.646Z,3.40
2018-10-05T13:01:08.410Z,3.30
2018-10-05T13:03:36.306Z,3.17
2018-10-05T13:06:04.073Z,3.40
2018-10-05T13:08:31.978Z,2.97
2018-10-05T13:10:59.847Z,2.87
2018-10-05T13:13:27.609Z,3.43
2018-10-05T13:15:55.480Z,2.97
2018-10-05T13:18:23.280Z,2.90
2018-10-05T13:20:51.100Z,2.40
2018-10-05T13:23:18.873Z,3.30
2018-10-05T13:25:46.712Z,3.00
2018-10-05T13:28:14.557Z,3.40
2018-10-05T13:30:42.357Z,3.80
2018-10-05T13:33:10.179Z,3.37
2018-10-05T13:35:37.970Z,3.17
2018-10-05T13:38:05.859Z,3.60
2018-10-05T13:40:33.657Z,6.00
2018-10-05T13:43:01.427Z,4.37
2018-10-05T13:45:29.226Z,4.80
2018-10-05T13:47:56.986Z,4.03
2018-10-05T13:50:24.847Z,3.43
2018-10-05T13:52:52.610Z,3.17
2018-10-05T13:55:20.463Z,3.20
2018-10-05T13:57:48.241Z,3.57
2018-10-05T14:00:16.085Z,2.83
2018-10-05T14:02:43.935Z,3.70
2018-10-05T14:05:11.728Z,6.43
2018-10-05T14:07:39.563Z,4.47
2018-10-05T14:10:07.379Z,3.67
2018-10-05T14:12:35.214Z,3.80
2018-10-05T14:15:02.990Z,3.17
2018-10-05T14:17:30.755Z,3.17
2018-10-05T14:19:58.547Z,3.20
2018-10-05T14:22:26.326Z,3.70
2018-10-05T14:24:54.102Z,3.20
2018-10-05T14:27:21.886Z,3.17
2018-10-05T14:29:49.725Z,3.33
2018-10-05T14:32:17.477Z,3.30
2018-10-05T14:34:45.246Z,3.57
2018-10-05T14:37:13.061Z,3.73
2018-10-05T14:39:40.850Z,3.50
2018-10-05T14:42:08.652Z,3.80
2018-10-05T14:44:36.414Z,2.90
2018-10-05T14:47:04.275Z,4.83
2018-10-05T14:49:32.218Z,2.87
2018-10-05T14:52:00.014Z,3.13
2018-10-05T14:54:27.804Z,3.43
2018-10-05T14:56:55.603Z,3.83
2018-10-05T14:59:23.431Z,3.20
2018-10-05T15:01:51.254Z,6.23
2018-10-05T15:04:19.210Z,6.03
2018-10-05T15:06:46.966Z,3.90
2018-10-05T15:09:14.742Z,4.03
2018-10-05T15:11:42.522Z,3.57
2018-10-05T15:14:10.265Z,4.20
2018-10-05T15:16:38.090Z,5.20
2018-10-05T15:19:05.849Z,3.70
2018-10-05T15:21:33.719Z,3.00
2018-10-05T15:24:01.506Z,3.33
2018-10-05T15:26:29.319Z,3.53
2018-10-05T15:28:57.134Z,3.77
2018-10-05T15:31:24.962Z,4.30
2018-10-05T15:33:52.715Z,4.20
2018-10-05T15:36:20.502Z,6.30
2018-10-05T15:38:48.454Z,4.50
2018-10-05T15:41:16.296Z,3.60
2018-10-05T15:43:44.045Z,4.20
2018-10-05T15:46:15.866Z,5.40
2018-10-05T15:48:43.655Z,6.13
2018-10-05T15:51:11.458Z,6.80
2018-10-05T15:53:39.263Z,5.30
2018-10-05T15:56:07.019Z,5.87
2018-10-05T15:58:34.878Z,6.17
2018-10-05T16:01:02.625Z,5.73
2018-10-05T16:03:30.407Z,4.57
2018-10-05T16:05:58.221Z,4.53
2018-10-05T16:08:25.974Z,5.07
2018-10-05T16:10:53.750Z,5.17
2018-10-05T16:13:21.534Z,4.60
2018-10-05T16:15:49.501Z,5.27
2018-10-05T16:18:17.386Z,4.50
2018-10-05T16:20:45.134Z,4.23
2018-10-05T16:23:12.913Z,5.17
2018-10-05T16:25:40.700Z,5.07
2018-10-05T16:28:08.519Z,6.40
2018-10-05T16:30:36.305Z,4.80
2018-10-05T16:33:04.162Z,5.50
2018-10-05T16:35:31.958Z,5.17
2018-10-05T16:37:59.775Z,4.60
2018-10-05T16:40:27.610Z,6.07
2018-10-05T16:42:55.381Z,6.80
2018-10-05T16:45:23.145Z,7.00
2018-10-05T16:47:50.897Z,6.63
2018-10-05T16:50:18.749Z,6.93
2018-10-05T16:52:46.579Z,7.87
2018-10-05T16:55:14.398Z,14.73
2018-10-05T16:57:42.177Z,18.00
2018-10-05T17:00:09.936Z,14.03
2018-10-05T17:02:37.739Z,12.77
2018-10-05T17:05:05.569Z,53.43
2018-10-05T17:07:33.458Z,41.67
2018-10-05T17:10:01.226Z,16.47
2018-10-05T17:12:29.054Z,10.73
2018-10-05T17:14:56.838Z,13.93
2018-10-05T17:17:24.603Z,11.07
2018-10-05T17:19:52.371Z,6.77
2018-10-05T17:22:20.135Z,7.00
2018-10-05T17:24:47.995Z,6.20
2018-10-05T17:27:15.824Z,5.60
2018-10-05T17:29:43.701Z,5.47
2018-10-05T17:32:11.616Z,4.60
2018-10-05T17:34:39.398Z,4.70
2018-10-05T17:37:08.434Z,5.10
2018-10-05T17:39:36.274Z,5.23
2018-10-05T17:42:04.230Z,256.37
2018-10-05T17:44:31.998Z,269.70
2018-10-05T17:46:59.788Z,134.23
2018-10-05T17:49:27.620Z,140.90
2018-10-05T17:51:55.397Z,155.23
2018-10-05T17:54:23.190Z,84.17
2018-10-05T17:56:50.971Z,33.67
2018-10-05T17:59:18.802Z,22.90
2018-10-05T18:01:46.664Z,15.43
2018-10-05T18:04:14.421Z,6.77
2018-10-05T18:06:42.197Z,6.30
2018-10-05T18:09:09.958Z,6.13
2018-10-05T18:11:37.812Z,6.47
2018-10-05T18:14:05.623Z,6.30
2018-10-05T18:16:33.481Z,7.03
2018-10-05T18:19:01.278Z,6.77
2018-10-05T18:21:29.070Z,6.63
2018-10-05T18:23:56.894Z,8.23
2018-10-05T18:26:24.687Z,5.10
2018-10-05T18:28:52.683Z,6.70
2018-10-05T18:31:20.553Z,3.20
2018-10-05T18:33:48.485Z,3.87
2018-10-05T18:36:16.169Z,4.97
2018-10-05T18:38:43.921Z,4.03
2018-10-05T18:41:12.683Z,3.77
2018-10-05T18:43:40.446Z,4.20
2018-10-05T18:46:08.379Z,3.60
2018-10-05T18:48:36.425Z,3.50
2018-10-05T18:51:04.232Z,3.97
2018-10-05T18:53:31.999Z,3.80
2018-10-05T18:56:05.166Z,4.43
2018-10-05T18:58:33.015Z,8.87
2018-10-05T19:01:00.783Z,4.70
2018-10-05T19:03:28.658Z,5.10
2018-10-05T19:05:56.439Z,4.73
2018-10-05T19:08:24.235Z,4.03
2018-10-05T19:10:52.066Z,3.90
2018-10-05T19:13:19.873Z,4.40
2018-10-05T19:15:47.749Z,4.00
2018-10-05T19:18:15.507Z,4.23
2018-10-05T19:20:43.327Z,3.80
2018-10-05T19:23:11.108Z,4.00
2018-10-05T19:25:38.856Z,3.50
2018-10-05T19:28:06.626Z,3.67
2018-10-05T19:30:34.384Z,4.53
2018-10-05T19:33:02.225Z,4.80
2018-10-05T19:35:29.995Z,3.77
2018-10-05T19:37:57.753Z,3.57
2018-10-05T19:40:25.535Z,4.70
2018-10-05T19:42:53.285Z,5.50
2018-10-05T19:45:21.122Z,3.37
2018-10-05T19:47:48.879Z,3.77
2018-10-05T19:50:16.719Z,4.97
2018-10-05T19:52:44.513Z,4.50
2018-10-05T19:55:12.285Z,4.47
2018-10-05T19:57:40.142Z,4.43
2018-10-05T20:00:07.947Z,4.27
2018-10-05T20:02:35.714Z,4.20
2018-10-05T20:05:03.561Z,3.90
2018-10-05T20:07:31.445Z,4.30
2018-10-05T20:09:59.229Z,4.50
2018-10-05T20:12:27.021Z,3.77
2018-10-05T20:14:54.906Z,3.00
2018-10-05T20:17:22.726Z,3.37
2018-10-05T20:19:50.525Z,3.60
2018-10-05T20:22:18.293Z,3.77
2018-10-05T20:24:46.038Z,3.57
2018-10-05T20:27:13.866Z,3.80
2018-10-05T20:29:41.647Z,3.87
2018-10-05T20:32:09.480Z,3.60
2018-10-05T20:34:37.256Z,3.37
2018-10-05T20:37:05.244Z,3.67
2018-10-05T20:39:32.806Z,4.10
2018-10-05T20:42:00.553Z,3.80
2018-10-05T20:44:28.402Z,3.13
2018-10-05T20:46:56.168Z,3.87
2018-10-05T20:49:23.994Z,5.67
2018-10-05T20:51:51.765Z,7.30
2018-10-05T20:54:19.542Z,12.47
2018-10-05T20:56:47.370Z,9.23
2018-10-05T20:59:15.118Z,3.90
2018-10-05T21:01:42.910Z,4.20
2018-10-05T21:04:10.700Z,4.10
2018-10-05T21:06:38.571Z,3.57
2018-10-05T21:09:07.365Z,2.87
2018-10-05T21:11:35.113Z,3.10
2018-10-05T21:14:02.922Z,3.60
2018-10-05T21:16:30.694Z,3.50
2018-10-05T21:18:58.457Z,3.30
2018-10-05T21:21:26.242Z,3.47
2018-10-05T21:23:54.133Z,3.10
2018-10-05T21:26:21.922Z,2.90
2018-10-05T21:28:49.682Z,10.80
2018-10-05T21:31:17.531Z,6.43
2018-10-05T21:33:45.309Z,8.70
2018-10-05T21:36:13.111Z,12.60
2018-10-05T21:38:41.090Z,5.83
2018-10-05T21:41:08.962Z,4.10
2018-10-05T21:43:36.726Z,3.77
2018-10-05T21:46:04.550Z,2.93
2018-10-05T21:48:32.364Z,2.50
2018-10-05T21:51:00.162Z,3.10
2018-10-05T21:53:27.999Z,3.00
2018-10-05T21:55:55.793Z,2.80
2018-10-05T21:58:23.631Z,2.57
2018-10-05T22:00:51.437Z,2.73
2018-10-05T22:03:19.193Z,2.77
2018-10-05T22:05:47.021Z,3.20
2018-10-05T22:08:14.792Z,2.90
2018-10-05T22:10:43.033Z,3.40
2018-10-05T22:13:10.836Z,2.67
2018-10-05T22:15:38.719Z,3.00
2018-10-05T22:18:06.480Z,2.90
2018-10-05T22:20:34.286Z,3.00
2018-10-05T22:23:02.094Z,3.00
2018-10-05T22:25:29.842Z,3.17
2018-10-05T22:27:57.659Z,2.73
2018-10-05T22:30:25.414Z,3.17
2018-10-05T22:32:53.241Z,2.57
2018-10-05T22:35:21.113Z,3.17
2018-10-05T22:37:48.910Z,2.60
2018-10-05T22:40:16.745Z,2.50
2018-10-05T22:42:44.522Z,2.77
2018-10-05T22:45:12.311Z,2.57
2018-10-05T22:47:40.093Z,2.27
2018-10-05T22:50:08.011Z,2.50
2018-10-05T22:52:35.769Z,2.70
2018-10-05T22:55:03.541Z,2.50
2018-10-05T22:57:31.314Z,2.10
2018-10-05T22:59:59.129Z,2.30
2018-10-05T23:02:26.922Z,2.50
2018-10-05T23:04:54.721Z,2.63
2018-10-05T23:07:22.637Z,2.33
2018-10-05T23:09:50.422Z,2.50
2018-10-05T23:12:18.173Z,3.10
2018-10-05T23:14:45.954Z,3.27
2018-10-05T23:17:13.760Z,2.97
2018-10-05T23:19:41.546Z,2.53
2018-10-05T23:22:09.345Z,2.87
2018-10-05T23:24:37.165Z,2.30
2018-10-05T23:27:04.985Z,2.30
2018-10-05T23:29:32.758Z,2.30
2018-10-05T23:32:00.538Z,2.57
2018-10-05T23:34:28.342Z,2.43
2018-10-05T23:36:56.129Z,2.90
2018-10-05T23:39:23.901Z,2.33
2018-10-05T23:41:51.729Z,2.60
2018-10-05T23:44:19.520Z,2.50
2018-10-05T23:46:47.273Z,2.60
2018-10-05T23:49:15.101Z,2.50
2018-10-05T23:51:42.884Z,2.37
2018-10-05T23:54:10.654Z,2.63
2018-10-05T23:56:38.451Z,2.70
2018-10-05T23:59:06.294Z,2.50
